Time;durP1;ratioP1;P1;durP2;ratioP2;P2;SDS_P1;SDS_P2;PMS_P1;PMS_P2;Temp;Humidity;BMP_temperature;BMP_pressure;BME280_temperature;BME280_humidity;BME280_pressure;Samples;Min_cycle;Max_cycle;Signal;HPM_P1;HPM_P2
2023/10/31 00:00:18;;;;;;;1.85;0.98;;;;;;;18.49;54.88;99504.94;5034880;28;20030;-60
2023/10/31 00:02:43;;;;;;;1.48;0.82;;;;;;;18.49;54.42;99504.94;5033023;28;20042;-61
2023/10/31 00:05:09;;;;;;;4.07;1.50;;;;;;;18.51;55.06;99519.09;5034837;28;20044;-61
2023/10/31 00:07:34;;;;;;;3.55;1.05;;;;;;;18.53;54.56;99512.44;5028224;28;20030;-61
2023/10/31 00:10:00;;;;;;;2.35;1.42;;;;;;;18.52;54.87;99518.06;5034428;28;20037;-61
2023/10/31 00:12:25;;;;;;;1.27;0.90;;;;;;;18.51;54.64;99519.94;5033545;28;20108;-60
2023/10/31 00:14:50;;;;;;;3.22;1.55;;;;;;;18.49;54.75;99522.03;5016690;28;20060;-61
2023/10/31 00:17:16;;;;;;;1.98;1.30;;;;;;;18.47;54.37;99517.84;5033071;28;20063;-60
2023/10/31 00:19:41;;;;;;;2.70;1.27;;;;;;;18.45;54.45;99517.25;5034301;28;20064;-61
2023/10/31 00:22:07;;;;;;;4.70;1.60;;;;;;;18.45;54.30;99520.75;5034343;28;20060;-60
2023/10/31 00:24:32;;;;;;;3.25;1.70;;;;;;;18.43;54.86;99517.44;5032776;28;20056;-60
2023/10/31 00:26:58;;;;;;;2.90;1.40;;;;;;;18.45;54.72;99514.53;5016509;28;20045;-60
2023/10/31 00:29:23;;;;;;;2.90;1.38;;;;;;;18.45;54.46;99504.47;5032890;28;20029;-60
2023/10/31 00:31:48;;;;;;;4.35;1.90;;;;;;;18.47;54.25;99525.97;5032825;28;20042;-61
2023/10/31 00:34:14;;;;;;;6.72;2.25;;;;;;;18.46;54.57;99522.44;5032890;28;20037;-61
2023/10/31 00:36:39;;;;;;;5.53;2.33;;;;;;;18.48;54.34;99536.63;5032915;28;20120;-60
2023/10/31 00:39:05;;;;;;;3.75;2.33;;;;;;;18.46;54.64;99529.72;5033033;28;20108;-61
2023/10/31 00:41:30;;;;;;;5.38;1.75;;;;;;;18.45;55.04;99536.22;5032663;28;20505;-60
2023/10/31 00:43:55;;;;;;;6.38;2.08;;;;;;;18.42;54.10;99547.50;5015954;28;20491;-61
2023/10/31 00:46:21;;;;;;;4.18;2.00;;;;;;;18.40;54.22;99550.38;5032558;28;20064;-60
2023/10/31 00:48:46;;;;;;;7.18;2.40;;;;;;;18.40;54.11;99544.13;5032521;28;20037;-60
2023/10/31 00:51:12;;;;;;;5.30;1.90;;;;;;;18.37;54.72;99539.16;5033823;28;20065;-60
2023/10/31 00:53:37;;;;;;;2.72;1.83;;;;;;;18.37;53.92;99539.97;5032246;28;20504;-60
2023/10/31 00:56:03;;;;;;;4.43;2.28;;;;;;;18.33;54.85;99546.03;5033701;28;20037;-60
2023/10/31 00:58:28;;;;;;;2.17;1.48;;;;;;;18.30;54.77;99543.75;5032479;28;20029;-60
2023/10/31 01:00:53;;;;;;;6.40;2.28;;;;;;;18.28;54.65;99545.84;5032234;28;20409;-60
2023/10/31 01:03:19;;;;;;;3.50;1.63;;;;;;;18.27;54.42;99549.56;5032911;28;20049;-61
2023/10/31 01:05:44;;;;;;;4.32;2.10;;;;;;;18.28;54.39;99556.69;5031906;28;20039;-60
2023/10/31 01:08:11;;;;;;;6.18;2.22;;;;;;;18.30;54.17;99560.84;5033413;28;20042;-60
2023/10/31 01:10:37;;;;;;;2.92;2.55;;;;;;;18.24;54.03;99550.84;5015556;28;20026;-61
2023/10/31 01:13:02;;;;;;;6.03;2.25;;;;;;;18.28;53.92;99560.22;5031765;28;20056;-61
2023/10/31 01:15:28;;;;;;;9.38;2.28;;;;;;;18.26;54.43;99559.59;5014248;28;20517;-60
2023/10/31 01:17:53;;;;;;;6.05;2.67;;;;;;;18.29;54.00;99571.88;5012230;28;20037;-60
2023/10/31 01:20:18;;;;;;;8.90;2.55;;;;;;;18.26;55.11;99564.16;4996048;28;20030;-60
2023/10/31 01:22:44;;;;;;;8.70;3.03;;;;;;;18.30;54.13;99571.69;5013518;28;20045;-60
2023/10/31 01:25:10;;;;;;;5.30;2.45;;;;;;;18.31;54.52;99569.81;5013519;28;20030;-61
2023/10/31 01:27:35;;;;;;;7.25;3.08;;;;;;;18.32;54.18;99574.19;5012259;28;20041;-60
2023/10/31 01:30:01;;;;;;;4.55;2.53;;;;;;;18.32;54.33;99569.59;5012001;28;20038;-60
2023/10/31 01:32:26;;;;;;;4.53;2.60;;;;;;;18.37;54.45;99558.13;5012294;28;20034;-61
2023/10/31 01:34:51;;;;;;;8.88;3.38;;;;;;;18.35;54.44;99558.31;5013382;28;20030;-60
2023/10/31 01:37:19;;;;;;;6.32;3.08;;;;;;;18.38;54.40;99562.50;5013635;28;20482;-60
2023/10/31 01:39:44;;;;;;;8.35;2.90;;;;;;;18.40;53.81;99563.13;5012097;28;20042;-60
2023/10/31 01:42:10;;;;;;;8.23;3.22;;;;;;;18.42;54.29;99569.19;5013448;28;20058;-60
2023/10/31 01:44:35;;;;;;;7.53;3.30;;;;;;;18.41;54.19;99571.06;5013357;28;20038;-60
2023/10/31 01:47:01;;;;;;;10.75;3.70;;;;;;;18.42;54.44;99574.59;5011812;28;20553;-61
2023/10/31 01:49:26;;;;;;;5.40;3.47;;;;;;;18.38;54.54;99563.34;5016409;28;20116;-60
2023/10/31 01:51:52;;;;;;;10.05;3.50;;;;;;;18.40;53.94;99572.09;5011980;28;20118;-60
2023/10/31 01:54:18;;;;;;;10.40;4.38;;;;;;;18.41;54.04;99575.63;5012085;28;20049;-60
2023/10/31 01:56:43;;;;;;;14.85;3.60;;;;;;;18.39;54.11;99565.00;5027871;28;20517;-61
2023/10/31 01:59:09;;;;;;;10.60;4.18;;;;;;;18.36;54.20;99567.31;5013038;28;20040;-61
2023/10/31 02:01:39;;;;;;;7.97;3.58;;;;;;;18.36;54.29;99564.59;5012970;28;20113;-60
2023/10/31 02:04:08;;;;;;;7.95;3.67;;;;;;;18.38;54.03;99570.63;5012848;28;20142;-60
2023/10/31 02:06:34;;;;;;;10.10;4.18;;;;;;;18.37;54.24;99571.69;5013006;28;20512;-60
2023/10/31 02:08:59;;;;;;;12.60;3.90;;;;;;;18.36;53.55;99568.16;5013104;28;20120;-61
2023/10/31 02:11:25;;;;;;;10.38;4.07;;;;;;;18.36;54.03;99572.72;5011761;28;20490;-60
2023/10/31 02:13:50;;;;;;;7.72;3.38;;;;;;;18.36;54.20;99570.84;5011644;28;20125;-60
2023/10/31 02:16:15;;;;;;;15.40;4.63;;;;;;;18.41;53.79;99572.94;5011327;28;20057;-60
2023/10/31 02:18:41;;;;;;;9.15;4.05;;;;;;;18.40;54.04;99569.38;5015637;28;20044;-60
2023/10/31 02:21:06;;;;;;;8.05;3.60;;;;;;;18.41;53.87;99573.75;5015565;28;20073;-60
2023/10/31 02:23:31;;;;;;;9.35;3.58;;;;;;;18.39;53.97;99572.31;5015343;28;20114;-60
2023/10/31 02:25:57;;;;;;;6.80;3.53;;;;;;;18.39;53.78;99575.03;5015704;28;20034;-60
2023/10/31 02:28:22;;;;;;;5.05;2.72;;;;;;;18.39;54.11;99569.59;4998831;28;20058;-61
2023/10/31 02:30:49;;;;;;;4.60;2.55;;;;;;;18.40;54.07;99576.66;5015562;28;20084;-60
2023/10/31 02:33:14;;;;;;;4.55;2.83;;;;;;;18.40;54.09;99576.66;5015249;28;20042;-60
2023/10/31 02:35:40;;;;;;;10.95;3.72;;;;;;;18.37;53.67;99577.13;5016446;28;20406;-60
2023/10/31 02:38:05;;;;;;;6.75;2.97;;;;;;;18.40;53.92;99576.66;5022526;28;20033;-61
2023/10/31 02:40:31;;;;;;;6.55;3.00;;;;;;;18.40;54.10;99582.94;5037378;28;20045;-61
2023/10/31 02:42:56;;;;;;;4.05;2.60;;;;;;;18.40;54.18;99579.38;5035747;28;20025;-61
2023/10/31 02:45:21;;;;;;;7.15;2.95;;;;;;;18.43;53.59;99582.50;5018484;28;20116;-60
2023/10/31 02:47:47;;;;;;;4.00;2.38;;;;;;;18.45;54.36;99585.03;5036050;28;20121;-60
2023/10/31 02:50:13;;;;;;;6.72;2.20;;;;;;;18.45;53.93;99580.41;5035953;28;20052;-61
2023/10/31 02:52:39;;;;;;;3.90;2.00;;;;;;;18.44;54.35;99583.34;5034815;28;20034;-60
2023/10/31 02:55:04;;;;;;;5.30;2.72;;;;;;;18.43;53.45;99585.22;5042049;28;20095;-60
2023/10/31 02:57:29;;;;;;;3.65;2.20;;;;;;;18.40;53.99;99576.66;5034637;28;20572;-60
2023/10/31 02:59:55;;;;;;;6.47;2.42;;;;;;;18.38;53.89;99576.91;5034375;28;20033;-60
2023/10/31 03:02:20;;;;;;;5.40;2.60;;;;;;;18.37;53.24;99582.53;5035698;28;20109;-60
2023/10/31 03:04:45;;;;;;;3.22;2.10;;;;;;;18.35;54.18;99585.44;5035739;28;20131;-60
2023/10/31 03:07:11;;;;;;;4.95;1.90;;;;;;;18.34;54.17;99586.47;5017884;28;20037;-61
2023/10/31 03:09:36;;;;;;;8.30;2.63;;;;;;;18.32;54.16;99580.44;5034342;28;20111;-61
2023/10/31 03:12:02;;;;;;;2.38;1.90;;;;;;;18.32;54.14;99582.31;5034426;28;20056;-60
2023/10/31 03:14:28;;;;;;;4.10;2.50;;;;;;;18.32;54.25;99590.44;5034233;28;20025;-60
2023/10/31 03:16:53;;;;;;;3.97;1.80;;;;;;;18.32;54.14;99579.59;5034281;28;20104;-62
2023/10/31 03:19:19;;;;;;;5.65;2.22;;;;;;;18.35;54.11;99590.03;5035887;28;20021;-60
2023/10/31 03:21:44;;;;;;;2.63;2.00;;;;;;;18.32;54.24;99591.28;5034330;28;20025;-61
2023/10/31 03:24:09;;;;;;;3.30;2.28;;;;;;;18.34;53.97;99591.09;5017318;28;20021;-61
2023/10/31 03:26:34;;;;;;;5.13;2.05;;;;;;;18.30;54.07;99598.81;5035528;28;20021;-60
2023/10/31 03:29:00;;;;;;;2.70;2.00;;;;;;;18.35;53.98;99600.88;5033172;28;20511;-61
2023/10/31 03:31:25;;;;;;;5.80;1.98;;;;;;;18.34;54.89;99594.59;5035607;28;20044;-60
2023/10/31 03:33:51;;;;;;;3.85;2.00;;;;;;;18.35;53.97;99603.59;5035057;28;20056;-61
2023/10/31 03:36:17;;;;;;;3.97;2.22;;;;;;;18.35;53.61;99617.97;5035220;28;20021;-61
2023/10/31 03:38:43;;;;;;;5.88;2.13;;;;;;;18.34;53.98;99613.59;5018142;28;20404;-61
2023/10/31 03:41:08;;;;;;;2.45;1.90;;;;;;;18.34;54.42;99615.50;5034196;28;20017;-60
2023/10/31 03:43:34;;;;;;;2.92;2.03;;;;;;;18.35;54.12;99623.41;5034403;28;20025;-60
2023/10/31 03:46:00;;;;;;;3.88;1.90;;;;;;;18.36;54.12;99629.66;5018200;28;20076;-60
2023/10/31 03:48:25;;;;;;;2.15;1.80;;;;;;;18.34;54.25;99631.75;5034150;28;20495;-60
2023/10/31 03:50:51;;;;;;;2.67;1.55;;;;;;;18.32;53.77;99634.66;5017708;28;20496;-60
2023/10/31 03:53:16;;;;;;;2.63;1.70;;;;;;;18.33;54.77;99640.94;5017139;28;20045;-60
2023/10/31 03:55:42;;;;;;;2.47;1.75;;;;;;;18.30;54.02;99635.91;5033480;28;20026;-61
2023/10/31 03:58:07;;;;;;;4.90;2.15;;;;;;;18.26;53.52;99637.34;5017095;28;20469;-60
2023/10/31 04:00:33;;;;;;;2.88;1.55;;;;;;;18.29;53.79;99655.94;5034746;28;20524;-61
2023/10/31 04:02:58;;;;;;;2.58;1.60;;;;;;;18.24;54.24;99643.00;5034478;28;20072;-60
2023/10/31 04:05:23;;;;;;;1.92;1.63;;;;;;;18.23;54.39;99649.47;5016946;28;20025;-61
2023/10/31 04:07:49;;;;;;;1.55;1.45;;;;;;;18.22;53.93;99644.25;5033509;28;20029;-60
2023/10/31 04:10:15;;;;;;;2.95;1.85;;;;;;;18.20;54.18;99651.78;5033465;28;20056;-60
2023/10/31 04:12:41;;;;;;;3.28;2.25;;;;;;;18.17;54.22;99652.19;5034887;28;20485;-60
2023/10/31 04:15:08;;;;;;;2.72;1.70;;;;;;;18.15;54.03;99660.50;5035255;28;20109;-65
2023/10/31 04:17:33;;;;;;;1.92;1.48;;;;;;;18.12;54.04;99668.25;5035254;28;20028;-60
2023/10/31 04:19:58;;;;;;;4.43;1.50;;;;;;;18.12;54.20;99663.63;5034489;28;20025;-60
2023/10/31 04:22:25;;;;;;;2.65;1.67;;;;;;;18.13;53.93;99661.75;5034099;28;20419;-61
2023/10/31 04:24:51;;;;;;;2.70;1.92;;;;;;;18.14;53.96;99669.69;5033477;28;20021;-60
2023/10/31 04:27:16;;;;;;;3.55;1.88;;;;;;;18.17;53.98;99674.72;5034736;28;20021;-61
2023/10/31 04:29:42;;;;;;;2.30;1.80;;;;;;;18.17;54.46;99673.88;5034272;28;20495;-60
2023/10/31 04:32:07;;;;;;;5.18;2.13;;;;;;;18.18;53.76;99670.09;5034345;28;20109;-61
2023/10/31 04:34:32;;;;;;;2.50;1.60;;;;;;;18.21;54.02;99683.25;5032946;28;20501;-61
2023/10/31 04:36:59;;;;;;;3.35;1.83;;;;;;;18.20;53.99;99685.09;5032600;28;20042;-61
2023/10/31 04:39:24;;;;;;;2.20;2.00;;;;;;;18.20;53.39;99685.09;5033392;28;20436;-61
2023/10/31 04:41:50;;;;;;;3.45;1.65;;;;;;;18.20;53.50;99690.53;5016196;28;20038;-60
2023/10/31 04:44:16;;;;;;;3.83;2.20;;;;;;;18.19;53.75;99690.75;4999844;28;20040;-60
2023/10/31 04:46:42;;;;;;;2.22;2.03;;;;;;;18.18;53.45;99697.19;5034114;28;20033;-60
2023/10/31 04:49:07;;;;;;;2.80;2.13;;;;;;;18.18;54.19;99703.47;5016103;28;20034;-60
2023/10/31 04:51:34;;;;;;;1.75;1.65;;;;;;;18.19;53.42;99710.56;5032595;28;20496;-61
2023/10/31 04:54:00;;;;;;;1.85;1.67;;;;;;;18.18;53.83;99705.34;5032855;28;20042;-61
2023/10/31 04:56:25;;;;;;;3.28;1.67;;;;;;;18.18;54.15;99708.03;5033699;28;20076;-60
2023/10/31 04:58:50;;;;;;;3.28;1.77;;;;;;;18.18;53.62;99718.88;5015997;28;20382;-61
2023/10/31 05:01:16;;;;;;;2.60;2.08;;;;;;;18.15;53.65;99712.00;5032449;28;20509;-61
2023/10/31 05:03:41;;;;;;;3.70;2.17;;;;;;;18.13;53.63;99715.97;5015875;28;20048;-60
2023/10/31 05:06:07;;;;;;;1.90;1.70;;;;;;;18.10;53.47;99717.22;5033916;28;20033;-60
2023/10/31 05:08:32;;;;;;;1.98;1.65;;;;;;;18.08;53.86;99723.88;5015676;28;20500;-61
2023/10/31 05:10:58;;;;;;;4.97;1.92;;;;;;;18.07;53.18;99727.63;5033660;28;20037;-60
2023/10/31 05:13:24;;;;;;;2.65;1.88;;;;;;;18.08;53.38;99738.28;5015895;28;20033;-60
2023/10/31 05:15:50;;;;;;;4.75;1.67;;;;;;;18.06;53.77;99736.81;5015751;28;20566;-60
2023/10/31 05:18:15;;;;;;;1.52;1.42;;;;;;;18.02;53.07;99745.34;5031928;28;20033;-61
2023/10/31 05:20:41;;;;;;;3.22;1.98;;;;;;;18.00;53.07;99750.13;5033287;28;20049;-60
2023/10/31 05:23:07;;;;;;;3.20;1.75;;;;;;;18.01;53.43;99754.50;5033243;28;20033;-60
2023/10/31 05:25:32;;;;;;;3.67;2.70;;;;;;;17.98;53.67;99752.19;5033296;28;20025;-60
2023/10/31 05:27:58;;;;;;;4.35;1.90;;;;;;;17.99;54.13;99767.44;5031941;28;20037;-61
2023/10/31 05:30:23;;;;;;;6.78;2.05;;;;;;;17.99;54.10;99759.31;5015582;28;20404;-60
2023/10/31 05:32:51;;;;;;;2.30;1.50;;;;;;;17.99;53.59;99763.88;5031994;28;20400;-61
2023/10/31 05:35:17;;;;;;;1.80;1.33;;;;;;;18.00;53.40;99774.53;5032373;28;20026;-60
2023/10/31 05:37:42;;;;;;;2.70;2.20;;;;;;;17.98;53.48;99773.88;5033789;28;20087;-61
2023/10/31 05:40:08;;;;;;;2.80;1.95;;;;;;;17.98;53.25;99773.03;5033864;28;20025;-61
2023/10/31 05:42:33;;;;;;;3.55;1.50;;;;;;;17.99;53.86;99780.97;5031649;28;20091;-61
2023/10/31 05:45:00;;;;;;;5.72;2.20;;;;;;;17.98;53.54;99782.00;5013989;28;20041;-61
2023/10/31 05:47:26;;;;;;;2.45;1.60;;;;;;;18.00;53.55;99788.09;5031650;28;20022;-61
2023/10/31 05:49:51;;;;;;;1.60;1.50;;;;;;;18.03;53.37;99786.84;5031751;28;20531;-61
2023/10/31 05:52:17;;;;;;;4.50;1.63;;;;;;;17.99;53.38;99790.97;5032736;28;20029;-61
2023/10/31 05:54:42;;;;;;;3.55;1.45;;;;;;;17.99;53.22;99786.41;5032898;28;20562;-61
2023/10/31 05:57:07;;;;;;;2.97;1.88;;;;;;;18.04;52.83;99799.31;5032273;28;20057;-61
2023/10/31 05:59:34;;;;;;;1.85;1.50;;;;;;;18.04;52.90;99811.00;5033246;28;20036;-61
2023/10/31 06:01:59;;;;;;;2.20;1.80;;;;;;;18.01;52.82;99806.00;5015423;28;20033;-61
2023/10/31 06:04:27;;;;;;;2.05;1.52;;;;;;;18.03;53.14;99814.75;5031301;28;20049;-61
2023/10/31 06:06:53;;;;;;;2.40;1.65;;;;;;;18.02;52.93;99810.38;5031579;28;20036;-61
2023/10/31 06:09:18;;;;;;;3.75;1.83;;;;;;;18.02;52.85;99818.50;5032583;28;20030;-61
2023/10/31 06:11:44;;;;;;;3.35;1.92;;;;;;;18.03;52.57;99825.59;5015287;28;20057;-60
2023/10/31 06:14:11;;;;;;;5.03;1.92;;;;;;;18.00;53.20;99820.59;5031617;28;20116;-61
2023/10/31 06:16:43;;;;;;;4.68;2.40;;;;;;;17.99;52.78;99816.22;5031681;28;20034;-61
2023/10/31 06:19:09;;;;;;;4.18;2.28;;;;;;;18.02;53.20;99826.66;5032616;28;20026;-61
2023/10/31 06:21:34;;;;;;;4.15;2.40;;;;;;;18.01;52.91;99827.66;5015433;28;20029;-60
2023/10/31 06:23:59;;;;;;;4.55;2.05;;;;;;;17.99;52.72;99829.75;5031078;28;20040;-61
2023/10/31 06:26:25;;;;;;;3.55;2.53;;;;;;;17.99;52.96;99828.91;5031457;28;20026;-61
2023/10/31 06:28:50;;;;;;;4.68;2.72;;;;;;;17.98;52.98;99835.34;5014725;28;20041;-61
2023/10/31 06:31:15;;;;;;;2.95;2.25;;;;;;;17.97;52.92;99831.84;5031617;28;20029;-61
2023/10/31 06:33:41;;;;;;;2.90;2.35;;;;;;;17.96;52.99;99841.00;5014820;28;20034;-60
2023/10/31 06:36:07;;;;;;;5.00;2.60;;;;;;;17.92;52.99;99839.72;5031310;28;20034;-61
2023/10/31 06:38:32;;;;;;;3.33;2.45;;;;;;;17.94;52.77;99843.06;5031108;28;20034;-62
2023/10/31 06:40:58;;;;;;;2.92;2.45;;;;;;;17.94;53.02;99837.66;5031146;28;20026;-61
2023/10/31 06:43:23;;;;;;;3.38;2.45;;;;;;;17.93;52.89;99840.56;5031143;28;20113;-61
2023/10/31 06:45:48;;;;;;;3.38;2.67;;;;;;;17.92;53.10;99845.13;5031314;28;20068;-61
2023/10/31 06:48:14;;;;;;;3.40;2.65;;;;;;;17.95;53.05;99849.34;5031470;28;20057;-60
2023/10/31 06:50:39;;;;;;;3.70;2.70;;;;;;;17.92;52.47;99838.91;5031059;28;20117;-60
2023/10/31 06:53:04;;;;;;;3.50;2.65;;;;;;;17.92;52.60;99839.72;5032234;28;20040;-60
2023/10/31 06:55:30;;;;;;;3.95;2.83;;;;;;;17.91;52.83;99854.31;5031210;28;20028;-60
2023/10/31 06:57:55;;;;;;;3.60;3.00;;;;;;;17.93;52.75;99860.38;5031784;28;20493;-61
2023/10/31 07:00:20;;;;;;;3.40;2.40;;;;;;;17.91;52.81;99861.59;5031059;28;20056;-60
2023/10/31 07:02:47;;;;;;;5.00;3.50;;;;;;;17.95;52.64;99861.00;5019488;28;20050;-60
2023/10/31 07:05:15;;;;;;;3.88;3.08;;;;;;;17.99;53.20;99851.44;5015961;28;20065;-60
2023/10/31 07:07:40;;;;;;;3.47;2.78;;;;;;;18.05;52.80;99866.06;5016020;28;20531;-60
2023/10/31 07:10:06;;;;;;;4.45;3.30;;;;;;;18.14;52.75;99853.19;5016103;28;20037;-60
2023/10/31 07:12:31;;;;;;;3.58;2.67;;;;;;;18.22;52.81;99855.72;5016103;28;20068;-60
2023/10/31 07:14:58;;;;;;;4.63;2.70;;;;;;;18.26;52.84;99867.81;5014489;28;20456;-60
2023/10/31 07:17:24;;;;;;;4.55;3.20;;;;;;;18.30;52.08;99866.38;5016013;28;20108;-60
2023/10/31 07:19:49;;;;;;;4.32;2.65;;;;;;;18.41;52.55;99871.22;5015897;28;20053;-60
2023/10/31 07:22:15;;;;;;;4.75;3.25;;;;;;;18.43;52.36;99869.97;5015849;28;20042;-60
2023/10/31 07:24:40;;;;;;;5.60;2.80;;;;;;;18.47;52.25;99870.41;5014509;28;20501;-60
2023/10/31 07:27:06;;;;;;;4.30;2.70;;;;;;;18.44;52.45;99870.81;5014456;28;20050;-60
2023/10/31 07:29:31;;;;;;;6.93;2.75;;;;;;;18.56;52.13;99874.66;5029835;28;20394;-60
2023/10/31 07:31:56;;;;;;;6.35;3.45;;;;;;;18.57;51.90;99881.72;5035426;28;20116;-60
2023/10/31 07:34:22;;;;;;;5.03;2.90;;;;;;;18.60;51.89;99882.16;5035354;28;20511;-60
2023/10/31 07:36:47;;;;;;;4.18;2.95;;;;;;;18.74;51.43;99888.47;5035433;28;20493;-60
2023/10/31 07:39:14;;;;;;;4.45;2.67;;;;;;;18.81;51.49;99889.31;5033806;28;20034;-60
2023/10/31 07:41:39;;;;;;;4.13;2.58;;;;;;;18.82;51.83;99890.97;5035340;28;20057;-60
2023/10/31 07:44:05;;;;;;;4.97;2.75;;;;;;;18.80;52.19;99884.09;5034171;28;20057;-60
2023/10/31 07:46:31;;;;;;;4.47;3.25;;;;;;;18.81;51.59;99893.91;5035105;28;20037;-60
2023/10/31 07:48:56;;;;;;;5.10;3.20;;;;;;;18.83;51.71;99892.66;5035016;28;20084;-60
2023/10/31 07:51:22;;;;;;;5.40;2.55;;;;;;;18.89;51.81;99894.56;5035004;28;20103;-60
2023/10/31 07:53:47;;;;;;;4.35;3.00;;;;;;;18.90;51.33;99898.13;5034892;28;20447;-61
2023/10/31 07:56:16;;;;;;;6.78;3.15;;;;;;;19.01;50.96;99906.47;5033429;28;20452;-60
2023/10/31 07:58:42;;;;;;;4.93;3.05;;;;;;;19.10;51.47;99902.50;5017293;28;20037;-60
2023/10/31 08:01:10;;;;;;;4.00;3.13;;;;;;;19.19;51.46;99903.16;5033650;28;20037;-60
2023/10/31 08:03:38;;;;;;;4.32;3.55;;;;;;;19.24;51.36;99907.94;5034309;28;20045;-60
2023/10/31 08:06:06;;;;;;;3.53;2.70;;;;;;;19.33;51.36;99904.00;5034839;28;20037;-60
2023/10/31 08:08:31;;;;;;;3.03;2.72;;;;;;;19.40;50.60;99911.13;5033390;28;20034;-60
2023/10/31 08:10:58;;;;;;;4.85;2.90;;;;;;;19.51;50.68;99898.81;5033893;28;20044;-60
2023/10/31 08:13:24;;;;;;;6.68;3.03;;;;;;;19.52;50.72;99911.34;5033483;28;20037;-61
2023/10/31 08:15:49;;;;;;;6.03;2.80;;;;;;;19.57;50.40;99903.41;5034639;28;20112;-60
2023/10/31 08:18:14;;;;;;;3.55;2.88;;;;;;;19.73;50.71;99901.09;5030056;28;20030;-60
2023/10/31 08:20:40;;;;;;;5.53;2.78;;;;;;;19.86;50.14;99907.56;5013543;28;20072;-60
2023/10/31 08:23:05;;;;;;;6.95;3.15;;;;;;;19.92;50.75;99910.28;5014918;28;20375;-60
2023/10/31 08:25:30;;;;;;;3.95;2.28;;;;;;;20.06;50.41;99914.63;4997098;28;20042;-60
2023/10/31 08:27:56;;;;;;;3.72;2.50;;;;;;;20.20;50.31;99915.44;5014749;28;20048;-60
2023/10/31 08:30:22;;;;;;;2.55;2.33;;;;;;;20.08;49.45;99920.69;5013445;28;20054;-60
2023/10/31 08:32:47;;;;;;;2.50;2.30;;;;;;;20.07;50.66;99927.16;5027593;28;20037;-60
2023/10/31 08:35:12;;;;;;;4.20;2.30;;;;;;;20.10;50.21;99929.47;5029756;28;20493;-60
2023/10/31 08:37:38;;;;;;;3.03;2.35;;;;;;;20.25;50.08;99938.25;5014357;28;20034;-61
2023/10/31 08:40:04;;;;;;;4.47;2.38;;;;;;;20.53;49.61;99928.94;5011819;28;20060;-60
2023/10/31 08:42:30;;;;;;;3.53;2.40;;;;;;;20.72;48.73;99925.28;5012835;28;20092;-60
2023/10/31 08:44:56;;;;;;;3.20;2.08;;;;;;;20.77;49.30;99930.94;5012808;28;20033;-60
2023/10/31 08:47:21;;;;;;;4.45;2.38;;;;;;;21.01;48.42;99924.72;5013042;28;20055;-61
2023/10/31 08:49:46;;;;;;;4.55;1.85;;;;;;;21.05;49.29;99933.31;5013885;28;20089;-60
2023/10/31 08:52:12;;;;;;;4.88;1.50;;;;;;;21.09;48.33;99942.72;5013838;28;20040;-61
2023/10/31 08:54:37;;;;;;;3.20;1.83;;;;;;;21.12;48.13;99939.56;5013061;28;20065;-60
2023/10/31 08:57:02;;;;;;;3.15;1.52;;;;;;;21.07;49.25;99955.69;5012667;28;20040;-61
2023/10/31 08:59:28;;;;;;;3.13;1.65;;;;;;;21.26;48.94;99949.31;5014671;28;20045;-61
2023/10/31 09:01:53;;;;;;;2.08;1.85;;;;;;;21.22;48.85;99948.06;4995859;28;20510;-60
2023/10/31 09:04:18;;;;;;;2.30;1.50;;;;;;;21.27;48.58;99953.72;5013229;28;20038;-65
2023/10/31 09:06:44;;;;;;;4.28;1.60;;;;;;;21.14;49.19;99959.22;4996065;28;20041;-62
2023/10/31 09:09:10;;;;;;;3.13;1.85;;;;;;;21.05;48.48;99964.06;5012918;28;20034;-62
2023/10/31 09:11:35;;;;;;;11.15;2.13;;;;;;;20.95;49.12;99971.88;5013713;28;20102;-62
2023/10/31 09:14:01;;;;;;;3.75;1.42;;;;;;;20.85;48.62;99974.25;5012547;28;20129;-65
2023/10/31 09:16:26;;;;;;;2.65;1.25;;;;;;;20.79;49.14;99977.84;5012915;28;20026;-61
2023/10/31 09:18:52;;;;;;;3.05;1.30;;;;;;;20.72;48.84;99983.28;5022227;28;20033;-62
2023/10/31 09:21:17;;;;;;;3.10;1.20;;;;;;;20.65;49.02;99987.09;5034260;28;20108;-64
2023/10/31 09:23:43;;;;;;;3.47;1.20;;;;;;;20.57;49.58;99990.91;5032982;28;20044;-61
2023/10/31 09:26:08;;;;;;;1.83;1.02;;;;;;;20.55;49.24;99992.13;5031631;28;20041;-62
2023/10/31 09:28:33;;;;;;;1.58;1.02;;;;;;;20.49;49.08;100001.19;5032030;28;20041;-63
2023/10/31 09:31:00;;;;;;;3.42;1.40;;;;;;;20.56;49.44;100005.56;5031697;28;20037;-62
2023/10/31 09:33:26;;;;;;;4.40;1.38;;;;;;;21.16;48.56;100007.00;5032908;28;20029;-61
2023/10/31 09:35:51;;;;;;;2.80;0.80;;;;;;;21.41;47.61;100015.25;5031797;28;20119;-63
2023/10/31 09:38:16;;;;;;;1.60;0.80;;;;;;;22.06;47.21;100024.84;5032934;28;20045;-62
2023/10/31 09:40:42;;;;;;;0.68;0.68;;;;;;;22.18;47.26;100017.59;5032854;28;20087;-62
2023/10/31 09:43:07;;;;;;;1.00;0.70;;;;;;;22.30;47.33;100018.53;5031373;28;20036;-61
2023/10/31 09:45:33;;;;;;;2.95;0.93;;;;;;;22.26;47.24;100020.03;5003413;28;20040;-61
2023/10/31 09:48:00;;;;;;;1.15;0.75;;;;;;;22.29;47.65;100025.06;5011904;28;20038;-60
2023/10/31 09:50:25;;;;;;;3.53;1.08;;;;;;;23.16;46.40;100030.19;5011722;28;20061;-61
2023/10/31 09:52:51;;;;;;;0.65;0.63;;;;;;;23.30;45.78;100021.78;5011840;28;20076;-61
2023/10/31 09:55:16;;;;;;;1.45;0.90;;;;;;;23.05;46.52;100025.50;5011797;28;20034;-61
2023/10/31 09:57:42;;;;;;;2.97;0.82;;;;;;;22.81;46.88;100041.97;4995549;28;20054;-61
2023/10/31 10:00:08;;;;;;;2.92;0.70;;;;;;;22.53;46.88;100035.09;5011759;28;20068;-60
2023/10/31 10:02:33;;;;;;;1.08;0.82;;;;;;;22.95;46.14;100036.09;5012874;28;20517;-60
2023/10/31 10:04:58;;;;;;;4.72;1.00;;;;;;;23.88;44.90;100043.88;5011468;28;20070;-61
2023/10/31 10:07:24;;;;;;;2.53;1.30;;;;;;;24.78;44.08;100043.34;4995298;28;20041;-61
2023/10/31 10:09:49;;;;;;;2.58;1.10;;;;;;;25.04;43.63;100046.66;5013029;28;20502;-61
2023/10/31 10:12:16;;;;;;;1.92;0.90;;;;;;;25.20;43.89;100043.16;5011647;28;20046;-61
2023/10/31 10:14:41;;;;;;;0.85;0.80;;;;;;;24.72;44.63;100051.69;4995509;28;20218;-61
2023/10/31 10:17:21;;;;;;;1.48;0.70;;;;;;;24.46;45.10;100046.69;5011841;28;20053;-61
2023/10/31 10:19:47;;;;;;;1.42;0.55;;;;;;;25.62;42.96;100047.28;4995367;28;20030;-60
2023/10/31 10:22:14;;;;;;;3.92;1.15;;;;;;;25.84;43.04;100053.72;5011625;28;20037;-63
2023/10/31 10:24:40;;;;;;;1.38;0.77;;;;;;;25.56;43.18;100056.50;5011388;28;20076;-63
2023/10/31 10:27:08;;;;;;;2.97;1.23;;;;;;;25.44;43.00;100052.94;4995134;28;20542;-63
2023/10/31 10:29:33;;;;;;;1.77;0.57;;;;;;;25.19;43.14;100056.00;5021649;28;20108;-61
2023/10/31 10:31:59;;;;;;;4.30;0.88;;;;;;;24.92;43.42;100059.53;5031385;28;20057;-63
2023/10/31 10:34:24;;;;;;;2.35;0.70;;;;;;;24.76;43.82;100070.13;5031359;28;20052;-62
2023/10/31 10:36:50;;;;;;;1.13;0.50;;;;;;;24.43;43.73;100071.84;5014557;28;20028;-63
2023/10/31 10:39:24;;;;;;;3.38;0.98;;;;;;;24.12;44.18;100073.00;5035784;28;20497;-62
2023/10/31 10:41:58;;;;;;;2.60;0.73;;;;;;;23.81;44.76;100078.72;5015399;28;20025;-63
2023/10/31 10:44:34;;;;;;;1.23;0.63;;;;;;;23.64;44.27;100079.38;5034847;28;20033;-62
2023/10/31 10:47:06;;;;;;;2.22;0.73;;;;;;;23.47;44.49;100083.00;5036391;28;20041;-60
2023/10/31 10:49:36;;;;;;;0.60;0.47;;;;;;;23.35;44.57;100079.31;5035252;28;20040;-62
2023/10/31 10:52:23;;;;;;;2.53;1.17;;;;;;;23.18;44.74;100084.59;5018603;28;20409;-62
2023/10/31 10:55:07;;;;;;;1.60;0.43;;;;;;;23.04;44.83;100088.53;5034862;28;20041;-60
2023/10/31 10:57:42;;;;;;;0.73;0.73;;;;;;;22.95;44.46;100079.81;5034707;28;20087;-62
2023/10/31 11:00:09;;;;;;;1.85;0.70;;;;;;;22.94;44.94;100088.25;5035898;28;20037;-62
2023/10/31 11:02:36;;;;;;;2.35;0.35;;;;;;;22.94;44.75;100093.72;5034556;28;20041;-62
2023/10/31 11:05:04;;;;;;;4.20;1.13;;;;;;;22.91;44.90;100095.00;5017927;28;20520;-61
2023/10/31 11:07:30;;;;;;;1.27;0.40;;;;;;;22.88;44.51;100100.09;5018146;28;20033;-61
2023/10/31 11:09:57;;;;;;;2.53;0.52;;;;;;;23.05;44.07;100090.22;5034448;28;20499;-61
2023/10/31 11:12:22;;;;;;;4.57;0.80;;;;;;;23.14;43.97;100092.41;5034516;28;20037;-60
2023/10/31 11:14:48;;;;;;;2.95;0.80;;;;;;;23.05;44.24;100088.34;4995807;28;20128;-61
2023/10/31 11:17:30;;;;;;;1.55;0.70;;;;;;;23.12;43.86;100093.69;5034528;28;20029;-61
2023/10/31 11:19:55;;;;;;;2.38;0.75;;;;;;;23.88;43.10;100085.75;5034326;28;20033;-60
2023/10/31 11:22:21;;;;;;;3.05;1.02;;;;;;;24.64;42.04;100087.66;5034343;28;20084;-60
2023/10/31 11:24:48;;;;;;;4.78;0.50;;;;;;;24.53;42.93;100088.50;5035497;28;20524;-61